createdAt,value
2023-03-06T00:01:54.760Z,91.62
2023-03-06T00:04:02.171Z,91.34
2023-03-06T00:06:07.324Z,91.64
2023-03-06T00:08:12.212Z,91.66
2023-03-06T00:10:18.672Z,91.65
2023-03-06T00:12:23.436Z,91.36
2023-03-06T00:14:30.160Z,91.60
2023-03-06T00:16:34.974Z,91.30
2023-03-06T00:18:40.421Z,91.43
2023-03-06T00:20:47.909Z,91.29
2023-03-06T00:22:52.880Z,91.04
2023-03-06T00:24:57.820Z,91.14
2023-03-06T00:27:02.526Z,91.19
2023-03-06T00:29:07.313Z,91.48
2023-03-06T00:31:12.078Z,91.30
2023-03-06T00:33:16.928Z,91.33
2023-03-06T00:35:21.812Z,91.44
2023-03-06T00:37:29.492Z,91.38
2023-03-06T00:39:34.630Z,91.56
2023-03-06T00:41:42.311Z,91.63
2023-03-06T00:43:47.346Z,91.93
2023-03-06T00:45:52.192Z,91.65
2023-03-06T00:47:57.063Z,91.70
2023-03-06T00:50:01.944Z,91.83
2023-03-06T00:52:07.672Z,91.85
2023-03-06T00:54:14.986Z,92.00
2023-03-06T00:56:20.076Z,91.83
2023-03-06T00:58:24.941Z,92.13
2023-03-06T01:00:29.870Z,91.85
2023-03-06T01:02:34.844Z,92.15
2023-03-06T01:04:40.136Z,91.84
2023-03-06T01:06:45.041Z,92.20
2023-03-06T01:08:49.865Z,92.61
2023-03-06T01:10:57.217Z,92.10
2023-03-06T01:13:01.928Z,91.92
2023-03-06T01:15:08.347Z,92.04
2023-03-06T01:17:14.243Z,91.88
2023-03-06T01:19:19.300Z,91.82
2023-03-06T01:21:24.203Z,92.44
2023-03-06T01:23:29.102Z,92.17
2023-03-06T01:25:33.881Z,92.19
2023-03-06T01:27:41.515Z,92.07
2023-03-06T01:29:46.684Z,92.01
2023-03-06T01:31:51.501Z,92.05
2023-03-06T01:33:56.561Z,91.86
2023-03-06T01:36:01.294Z,92.03
2023-03-06T01:38:05.935Z,91.91
2023-03-06T01:40:13.573Z,91.78
2023-03-06T01:42:18.822Z,91.80
2023-03-06T01:44:26.389Z,92.13
2023-03-06T01:46:44.115Z,92.21
2023-03-06T01:48:51.696Z,91.63
2023-03-06T01:51:00.090Z,91.30
2023-03-06T01:53:06.290Z,91.71
2023-03-06T01:55:14.687Z,91.57
2023-03-06T01:57:23.768Z,91.51
2023-03-06T01:59:32.296Z,91.52
2023-03-06T02:01:37.941Z,91.54
2023-03-06T02:03:46.704Z,91.50
2023-03-06T02:05:52.033Z,91.38
2023-03-06T02:07:58.213Z,91.63
2023-03-06T02:10:03.089Z,91.65
2023-03-06T02:12:12.397Z,91.63
2023-03-06T02:14:20.114Z,91.57
2023-03-06T02:16:30.950Z,91.43
2023-03-06T02:18:37.215Z,91.25
2023-03-06T02:20:48.931Z,91.67
2023-03-06T02:23:01.071Z,91.64
2023-03-06T02:25:12.472Z,91.86
2023-03-06T02:27:20.567Z,91.61
2023-03-06T02:29:31.224Z,91.93
2023-03-06T02:31:36.980Z,91.69
2023-03-06T02:33:41.910Z,91.92
2023-03-06T02:35:50.296Z,91.95
2023-03-06T02:37:57.316Z,91.94
2023-03-06T02:40:15.144Z,91.86
2023-03-06T02:42:26.093Z,91.64
2023-03-06T02:44:31.664Z,91.80
2023-03-06T02:46:36.516Z,91.91
2023-03-06T02:48:41.723Z,91.89
2023-03-06T02:50:47.461Z,91.86
2023-03-06T02:52:52.277Z,92.05
2023-03-06T02:54:57.106Z,92.29
2023-03-06T02:57:01.922Z,92.09
2023-03-06T02:59:09.285Z,92.25
2023-03-06T03:01:14.727Z,92.19
2023-03-06T03:03:20.372Z,92.40
2023-03-06T03:05:25.317Z,92.34
2023-03-06T03:07:30.277Z,92.44
2023-03-06T03:09:37.398Z,92.67
2023-03-06T03:11:42.781Z,92.76
2023-03-06T03:13:47.679Z,92.87
2023-03-06T03:16:04.280Z,93.11
2023-03-06T03:18:10.277Z,92.75
2023-03-06T03:20:18.398Z,93.11
2023-03-06T03:22:25.336Z,92.81
2023-03-06T03:24:30.340Z,92.97
2023-03-06T03:26:37.585Z,92.88
2023-03-06T03:28:42.670Z,92.45
2023-03-06T03:30:48.146Z,93.01
2023-03-06T03:32:55.674Z,92.62
2023-03-06T03:35:00.773Z,93.05
2023-03-06T03:37:05.665Z,93.00
2023-03-06T03:39:10.843Z,92.80
2023-03-06T03:41:16.240Z,93.03
2023-03-06T03:43:21.409Z,92.70
2023-03-06T03:45:26.352Z,92.64
2023-03-06T03:47:31.186Z,93.15
2023-03-06T03:49:38.624Z,92.71
2023-03-06T03:51:45.243Z,92.62
2023-03-06T03:53:50.430Z,92.57
2023-03-06T03:55:55.281Z,92.47
2023-03-06T03:58:00.319Z,92.52
2023-03-06T04:00:05.824Z,92.64
2023-03-06T04:02:12.365Z,92.32
2023-03-06T04:04:17.272Z,92.41
2023-03-06T04:06:24.638Z,92.25
2023-03-06T04:08:30.191Z,92.38
2023-03-06T04:10:35.143Z,92.10
2023-03-06T04:12:40.734Z,92.06
2023-03-06T04:14:45.593Z,92.00
2023-03-06T04:16:51.391Z,92.08
2023-03-06T04:18:56.398Z,92.34
2023-03-06T04:21:01.558Z,92.20
2023-03-06T04:23:08.907Z,92.05
2023-03-06T04:25:14.199Z,91.62
2023-03-06T04:27:19.261Z,92.14
2023-03-06T04:29:24.029Z,92.08
2023-03-06T04:31:28.804Z,91.86
2023-03-06T04:33:34.885Z,91.76
2023-03-06T04:35:39.980Z,91.83
2023-03-06T04:37:44.907Z,91.63
2023-03-06T04:39:53.844Z,91.89
2023-03-06T04:41:58.664Z,92.06
2023-03-06T04:44:03.499Z,91.80
2023-03-06T04:46:08.691Z,91.80
2023-03-06T04:48:16.155Z,91.93
2023-03-06T04:50:22.305Z,91.88
2023-03-06T04:52:27.107Z,92.19
2023-03-06T04:54:31.969Z,92.03
2023-03-06T04:56:42.689Z,92.14
2023-03-06T04:58:47.868Z,92.45
2023-03-06T05:00:52.588Z,92.36
2023-03-06T05:02:57.671Z,92.48
2023-03-06T05:05:02.555Z,92.47
2023-03-06T05:07:07.502Z,92.25
2023-03-06T05:09:12.364Z,92.52
2023-03-06T05:11:17.213Z,93.18
2023-03-06T05:13:24.955Z,92.78
2023-03-06T05:15:29.648Z,92.52
2023-03-06T05:17:34.326Z,92.75
2023-03-06T05:19:39.236Z,92.99
2023-03-06T05:21:48.805Z,92.59
2023-03-06T05:23:53.585Z,92.64
2023-03-06T05:25:58.301Z,93.13
2023-03-06T05:28:03.106Z,92.80
2023-03-06T05:30:14.638Z,92.85
2023-03-06T05:32:20.140Z,92.93
2023-03-06T05:34:25.085Z,93.04
2023-03-06T05:36:29.823Z,92.98
2023-03-06T05:38:35.783Z,93.28
2023-03-06T05:40:42.842Z,93.16
2023-03-06T05:42:47.830Z,92.93
2023-03-06T05:44:52.861Z,93.04
2023-03-06T05:47:02.551Z,92.95
2023-03-06T05:49:07.417Z,93.00
2023-03-06T05:51:15.340Z,93.60
2023-03-06T05:53:20.257Z,93.20
2023-03-06T05:55:25.384Z,93.56
2023-03-06T05:57:30.376Z,93.70
2023-03-06T05:59:36.336Z,93.31
2023-03-06T06:01:41.410Z,93.33
2023-03-06T06:03:49.198Z,93.19
2023-03-06T06:05:54.818Z,93.43
2023-03-06T06:07:59.631Z,93.31
2023-03-06T06:10:04.718Z,93.59
2023-03-06T06:12:10.369Z,93.09
2023-03-06T06:14:15.216Z,92.94
2023-03-06T06:16:20.554Z,92.81
2023-03-06T06:18:25.323Z,92.91
2023-03-06T06:20:32.798Z,92.76
2023-03-06T06:22:41.842Z,92.62
2023-03-06T06:24:47.024Z,92.39
2023-03-06T06:26:54.099Z,92.33
2023-03-06T06:29:00.252Z,92.35
2023-03-06T06:31:11.142Z,92.46
2023-03-06T06:33:16.209Z,92.66
2023-03-06T06:35:21.411Z,92.71
2023-03-06T06:37:28.855Z,92.62
2023-03-06T06:39:33.683Z,92.78
2023-03-06T06:41:55.270Z,93.07
2023-03-06T06:44:04.055Z,93.05
2023-03-06T06:46:36.472Z,92.98
2023-03-06T06:48:33.831Z,93.32
2023-03-06T06:50:38.788Z,93.13
2023-03-06T06:52:46.404Z,92.96
2023-03-06T06:54:51.955Z,92.86
2023-03-06T06:56:56.965Z,93.50
2023-03-06T06:59:15.710Z,93.08
2023-03-06T07:01:21.460Z,93.05
2023-03-06T07:03:26.919Z,93.03
2023-03-06T07:05:31.628Z,93.07
2023-03-06T07:07:37.729Z,93.11
2023-03-06T07:09:45.261Z,93.09
2023-03-06T07:11:50.126Z,93.13
2023-03-06T07:13:56.646Z,93.13
2023-03-06T07:16:01.602Z,92.96
2023-03-06T07:18:06.544Z,92.86
2023-03-06T07:20:13.315Z,92.77
2023-03-06T07:22:18.368Z,92.71
2023-03-06T07:24:22.979Z,92.72
2023-03-06T07:26:33.515Z,92.72
2023-03-06T07:28:51.599Z,92.86
2023-03-06T07:30:57.549Z,92.88
2023-03-06T07:33:02.886Z,92.90
2023-03-06T07:35:19.860Z,92.69
2023-03-06T07:37:24.929Z,92.45
2023-03-06T07:39:30.515Z,92.41
2023-03-06T07:41:38.260Z,92.58
2023-03-06T07:43:45.317Z,92.63
2023-03-06T07:45:50.054Z,92.45
2023-03-06T07:47:55.194Z,92.17
2023-03-06T07:50:03.267Z,92.20
2023-03-06T07:52:08.513Z,91.87
2023-03-06T07:54:13.449Z,91.99
2023-03-06T07:56:18.524Z,91.71
2023-03-06T07:58:26.336Z,91.71
2023-03-06T08:00:31.197Z,91.38
2023-03-06T08:02:35.854Z,91.11
2023-03-06T08:04:40.927Z,91.06
2023-03-06T08:06:45.756Z,90.96
2023-03-06T08:08:52.492Z,89.98
2023-03-06T08:10:57.364Z,89.70
2023-03-06T08:13:02.244Z,90.18
2023-03-06T08:15:12.353Z,90.16
2023-03-06T08:17:17.234Z,89.26
2023-03-06T08:19:23.421Z,88.25
2023-03-06T08:21:29.838Z,88.00
2023-03-06T08:23:36.429Z,88.00
2023-03-06T08:25:43.814Z,88.09
2023-03-06T08:27:49.616Z,86.19
2023-03-06T08:29:54.328Z,87.46
2023-03-06T08:32:01.841Z,86.33
2023-03-06T08:34:08.705Z,86.39
2023-03-06T08:36:13.783Z,86.75
2023-03-06T08:38:19.279Z,86.69
2023-03-06T08:40:27.134Z,85.89
2023-03-06T08:42:32.005Z,86.44
2023-03-06T08:44:37.079Z,85.24
2023-03-06T08:46:46.957Z,85.99
2023-03-06T08:48:55.038Z,86.14
2023-03-06T08:51:00.032Z,84.64
2023-03-06T08:53:05.251Z,85.59
2023-03-06T08:55:15.128Z,85.03
2023-03-06T08:57:20.656Z,85.34
2023-03-06T08:59:25.698Z,83.87
2023-03-06T09:01:32.570Z,84.81
2023-03-06T09:03:39.629Z,84.28
2023-03-06T09:05:47.329Z,83.89
2023-03-06T09:07:53.366Z,84.53
2023-03-06T09:09:59.612Z,83.59
2023-03-06T09:12:04.877Z,83.83
2023-03-06T09:14:11.532Z,84.02
2023-03-06T09:16:16.576Z,83.43
2023-03-06T09:18:21.551Z,83.57
2023-03-06T09:20:26.745Z,82.80
2023-03-06T09:22:34.652Z,84.14
2023-03-06T09:24:44.903Z,84.02
2023-03-06T09:26:51.588Z,84.42
2023-03-06T09:28:56.911Z,83.72
2023-03-06T09:31:05.682Z,83.71
2023-03-06T09:33:11.279Z,84.02
2023-03-06T09:35:18.823Z,84.69
2023-03-06T09:37:23.857Z,84.96
2023-03-06T09:39:33.985Z,84.38
2023-03-06T09:41:40.734Z,84.63
2023-03-06T09:43:48.525Z,84.49
2023-03-06T09:45:53.372Z,85.00
2023-03-06T09:48:04.234Z,85.26
2023-03-06T09:50:21.695Z,84.69
2023-03-06T09:52:43.984Z,85.09
2023-03-06T09:54:56.515Z,86.23
2023-03-06T09:57:01.288Z,85.85
2023-03-06T09:59:15.572Z,85.85
2023-03-06T10:01:25.499Z,85.09
2023-03-06T10:03:34.052Z,85.72
2023-03-06T10:05:45.348Z,84.11
2023-03-06T10:07:56.462Z,83.46
2023-03-06T10:10:06.869Z,83.94
2023-03-06T10:12:24.890Z,82.89
2023-03-06T10:14:38.165Z,83.07
2023-03-06T10:16:45.036Z,82.27
2023-03-06T10:18:50.036Z,83.28
2023-03-06T10:21:17.095Z,83.46
2023-03-06T10:23:45.644Z,82.96
2023-03-06T10:26:00.005Z,81.98
2023-03-06T10:28:12.949Z,81.72
2023-03-06T10:30:28.863Z,82.71
2023-03-06T10:32:49.088Z,81.52
2023-03-06T10:34:54.872Z,81.60
2023-03-06T10:37:01.615Z,81.06
2023-03-06T10:39:17.220Z,80.56
2023-03-06T10:41:30.716Z,78.33
2023-03-06T10:43:36.752Z,77.05
2023-03-06T10:45:50.503Z,75.49
2023-03-06T10:48:13.689Z,74.25
2023-03-06T10:50:26.654Z,75.09
2023-03-06T10:52:34.208Z,74.70
2023-03-06T10:54:42.327Z,72.49
2023-03-06T10:56:50.883Z,72.25
2023-03-06T10:59:10.659Z,70.98
2023-03-06T11:01:23.536Z,70.40
2023-03-06T11:03:28.564Z,71.10
2023-03-06T11:05:33.370Z,71.50
2023-03-06T11:07:39.316Z,69.01
2023-03-06T11:09:48.318Z,69.70
2023-03-06T11:12:16.101Z,71.03
2023-03-06T11:14:23.245Z,70.25
2023-03-06T11:16:31.262Z,70.43
2023-03-06T11:18:42.137Z,69.81
2023-03-06T11:20:52.419Z,68.12
2023-03-06T11:23:02.109Z,66.87
2023-03-06T11:25:07.968Z,67.34
2023-03-06T11:27:25.155Z,66.54
2023-03-06T11:29:38.984Z,65.96
2023-03-06T11:31:51.043Z,64.10
2023-03-06T11:33:59.459Z,63.54
2023-03-06T11:36:14.283Z,63.84
2023-03-06T11:38:24.593Z,63.78
2023-03-06T11:40:39.138Z,62.67
2023-03-06T11:42:52.784Z,64.77
2023-03-06T11:45:07.012Z,64.62
2023-03-06T11:47:19.629Z,63.99
2023-03-06T11:49:29.180Z,66.03
2023-03-06T11:51:38.317Z,64.08
2023-03-06T11:53:43.820Z,64.82
2023-03-06T11:55:59.621Z,62.94
2023-03-06T11:58:24.976Z,64.90
2023-03-06T12:00:43.691Z,63.69
2023-03-06T12:03:32.604Z,63.14
2023-03-06T12:05:40.428Z,62.22
2023-03-06T12:07:53.929Z,61.99
2023-03-06T12:12:24.786Z,62.70
2023-03-06T12:14:49.680Z,63.11
2023-03-06T12:17:18.401Z,62.42
2023-03-06T12:19:49.952Z,63.21
2023-03-06T12:22:10.459Z,63.18
2023-03-06T12:24:35.586Z,63.26
2023-03-06T12:27:01.630Z,63.04
2023-03-06T12:29:31.520Z,62.96
2023-03-06T12:31:58.726Z,62.07
2023-03-06T12:34:17.085Z,61.07
2023-03-06T12:36:36.663Z,60.99
2023-03-06T12:39:01.969Z,60.86
2023-03-06T12:41:21.377Z,60.84
2023-03-06T12:43:52.701Z,60.11
2023-03-06T12:46:01.142Z,61.32
2023-03-06T12:48:17.700Z,62.02
2023-03-06T12:50:27.311Z,61.07
2023-03-06T12:52:37.008Z,59.90
2023-03-06T12:54:44.019Z,59.06
2023-03-06T12:56:51.322Z,57.45
2023-03-06T12:58:58.699Z,57.76
2023-03-06T13:01:07.916Z,57.66
2023-03-06T13:03:21.990Z,58.23
2023-03-06T13:05:43.800Z,58.52
2023-03-06T13:08:03.114Z,59.07
2023-03-06T13:10:18.832Z,58.76
2023-03-06T13:12:49.721Z,59.16
2023-03-06T13:15:02.505Z,58.99
2023-03-06T13:17:35.997Z,59.67
2023-03-06T13:19:43.680Z,59.51
2023-03-06T13:22:28.731Z,59.63
2023-03-06T13:24:37.240Z,59.48
2023-03-06T13:26:55.772Z,59.25
2023-03-06T13:29:01.321Z,59.33
2023-03-06T13:31:10.621Z,59.31
2023-03-06T13:33:54.519Z,57.66
2023-03-06T13:36:24.707Z,58.61
2023-03-06T13:38:38.253Z,59.92
2023-03-06T13:40:43.037Z,58.49
2023-03-06T13:43:06.482Z,58.05
2023-03-06T13:45:16.974Z,58.59
2023-03-06T13:48:01.385Z,59.58
2023-03-06T13:50:03.973Z,58.07
2023-03-06T13:52:21.159Z,59.05
2023-03-06T13:54:35.634Z,58.80
2023-03-06T13:57:10.381Z,59.18
2023-03-06T14:00:03.199Z,60.12
2023-03-06T14:02:36.718Z,61.04
2023-03-06T14:04:54.818Z,60.74
2023-03-06T14:07:30.873Z,59.45
2023-03-06T14:09:38.655Z,60.56
2023-03-06T14:12:11.309Z,59.99
2023-03-06T14:14:16.352Z,60.52
2023-03-06T14:16:24.354Z,60.38
2023-03-06T14:18:34.632Z,61.62
2023-03-06T14:20:46.661Z,63.00
2023-03-06T14:22:54.809Z,61.48
2023-03-06T14:25:08.453Z,61.54
2023-03-06T14:27:20.512Z,61.21
2023-03-06T14:29:28.195Z,60.43
2023-03-06T14:31:51.863Z,59.79
2023-03-06T14:34:06.388Z,58.10
2023-03-06T14:36:18.735Z,56.07
2023-03-06T14:38:32.834Z,55.49
2023-03-06T14:40:40.158Z,56.18
2023-03-06T14:42:45.174Z,54.31
2023-03-06T14:44:52.484Z,55.39
2023-03-06T14:46:58.827Z,55.43
2023-03-06T14:49:04.085Z,55.91
2023-03-06T14:51:11.850Z,57.41
2023-03-06T14:53:20.456Z,56.77
2023-03-06T14:55:32.633Z,57.94
2023-03-06T14:57:45.192Z,58.66
2023-03-06T14:59:55.956Z,58.83
2023-03-06T15:02:08.379Z,59.06
2023-03-06T15:04:22.320Z,58.93
2023-03-06T15:06:33.363Z,59.32
2023-03-06T15:08:41.387Z,59.43
2023-03-06T15:11:00.443Z,59.10
2023-03-06T15:13:13.663Z,58.68
2023-03-06T15:15:29.494Z,57.88
2023-03-06T15:17:35.690Z,58.06
2023-03-06T15:19:44.465Z,58.67
2023-03-06T15:21:51.603Z,58.37
2023-03-06T15:23:58.313Z,57.72
2023-03-06T15:26:09.301Z,58.72
2023-03-06T15:28:28.657Z,59.50
2023-03-06T15:30:35.713Z,60.44
2023-03-06T15:32:42.976Z,61.94
2023-03-06T15:34:48.338Z,63.29
2023-03-06T15:36:58.461Z,64.74
2023-03-06T15:39:03.465Z,66.24
2023-03-06T15:41:24.369Z,67.14
2023-03-06T15:43:30.282Z,68.48
2023-03-06T15:45:38.126Z,68.60
2023-03-06T15:47:43.918Z,69.02
2023-03-06T15:49:53.307Z,67.44
2023-03-06T15:51:58.057Z,67.70
2023-03-06T15:54:11.960Z,67.77
2023-03-06T15:56:22.996Z,68.17
2023-03-06T15:58:30.643Z,67.99
2023-03-06T16:00:38.642Z,69.02
2023-03-06T16:02:44.019Z,68.87
2023-03-06T16:04:49.425Z,68.90
2023-03-06T16:06:54.350Z,68.67
2023-03-06T16:08:59.112Z,68.95
2023-03-06T16:11:03.958Z,68.80
2023-03-06T16:13:19.050Z,69.49
2023-03-06T16:15:28.405Z,69.87
2023-03-06T16:17:33.424Z,71.05
2023-03-06T16:19:39.130Z,72.13
2023-03-06T16:21:44.295Z,73.96
2023-03-06T16:23:49.503Z,75.15
2023-03-06T16:25:54.285Z,76.04
2023-03-06T16:28:01.150Z,77.83
2023-03-06T16:30:10.046Z,78.62
2023-03-06T16:32:15.123Z,79.61
2023-03-06T16:34:20.797Z,79.82
2023-03-06T16:36:27.596Z,80.96
2023-03-06T16:38:32.317Z,81.19
2023-03-06T16:40:41.500Z,81.56
2023-03-06T16:42:49.318Z,81.73
2023-03-06T16:44:53.959Z,82.39
2023-03-06T16:47:03.882Z,82.48
2023-03-06T16:49:08.793Z,82.27
2023-03-06T16:51:17.698Z,81.99
2023-03-06T16:53:22.411Z,82.18
2023-03-06T16:55:28.455Z,82.52
2023-03-06T16:57:35.721Z,82.87
2023-03-06T16:59:40.500Z,83.36
2023-03-06T17:01:45.745Z,83.15
2023-03-06T17:03:53.329Z,83.32
2023-03-06T17:05:58.200Z,84.13
2023-03-06T17:08:03.417Z,84.22
2023-03-06T17:10:11.730Z,84.71
2023-03-06T17:12:16.435Z,83.95
2023-03-06T17:14:21.290Z,83.74
2023-03-06T17:16:25.941Z,83.56
2023-03-06T17:18:31.905Z,83.75
2023-03-06T17:20:39.193Z,84.22
2023-03-06T17:22:44.382Z,84.08
2023-03-06T17:24:52.295Z,84.22
2023-03-06T17:26:57.036Z,84.08
2023-03-06T17:29:01.836Z,84.03
2023-03-06T17:31:14.850Z,84.40
2023-03-06T17:33:19.835Z,85.00
2023-03-06T17:35:24.527Z,84.93
2023-03-06T17:37:31.967Z,85.09
2023-03-06T17:39:37.486Z,85.24
2023-03-06T17:41:43.149Z,85.43
2023-03-06T17:43:51.098Z,85.25
2023-03-06T17:45:55.825Z,85.63
2023-03-06T17:48:00.886Z,85.64
2023-03-06T17:50:05.745Z,85.52
2023-03-06T17:52:10.952Z,85.95
2023-03-06T17:54:18.416Z,85.86
2023-03-06T17:56:23.517Z,85.82
2023-03-06T17:58:29.231Z,86.00
2023-03-06T18:00:33.970Z,86.90
2023-03-06T18:02:39.355Z,86.86
2023-03-06T18:04:47.017Z,87.01
2023-03-06T18:06:51.874Z,86.86
2023-03-06T18:08:57.660Z,87.37
2023-03-06T18:11:06.852Z,87.39
2023-03-06T18:13:12.132Z,87.11
2023-03-06T18:15:16.829Z,87.78
2023-03-06T18:17:21.710Z,87.89
2023-03-06T18:19:26.511Z,88.30
2023-03-06T18:21:33.621Z,88.11
2023-03-06T18:23:38.801Z,88.22
2023-03-06T18:25:43.715Z,88.88
2023-03-06T18:27:51.120Z,88.42
2023-03-06T18:29:55.957Z,89.14
2023-03-06T18:32:03.703Z,89.10
2023-03-06T18:34:13.536Z,89.34
2023-03-06T18:36:21.498Z,89.67
2023-03-06T18:38:26.200Z,90.16
2023-03-06T18:40:30.928Z,89.94
2023-03-06T18:42:39.706Z,90.10
2023-03-06T18:44:47.857Z,90.25
2023-03-06T18:46:52.604Z,90.32
2023-03-06T18:48:57.851Z,90.96
2023-03-06T18:51:06.840Z,91.17
2023-03-06T18:53:11.885Z,91.29
2023-03-06T18:55:16.717Z,91.31
2023-03-06T18:57:21.778Z,91.17
2023-03-06T18:59:26.653Z,91.55
2023-03-06T19:01:35.656Z,91.88
2023-03-06T19:03:40.530Z,92.30
2023-03-06T19:05:47.860Z,91.83
2023-03-06T19:07:52.694Z,92.20
2023-03-06T19:09:57.669Z,92.33
2023-03-06T19:12:03.670Z,92.48
2023-03-06T19:14:11.029Z,92.83
2023-03-06T19:16:21.445Z,92.40
2023-03-06T19:18:30.524Z,92.87
2023-03-06T19:20:35.430Z,92.83
2023-03-06T19:22:40.495Z,92.98
2023-03-06T19:24:46.927Z,93.32
2023-03-06T19:26:59.898Z,93.54
2023-03-06T19:29:04.557Z,93.69
2023-03-06T19:31:14.410Z,94.20
2023-03-06T19:33:19.350Z,94.03
2023-03-06T19:35:30.009Z,93.67
2023-03-06T19:37:36.678Z,93.50
2023-03-06T19:39:44.270Z,93.61
2023-03-06T19:41:49.931Z,93.61
2023-03-06T19:43:57.310Z,93.74
2023-03-06T19:46:02.352Z,93.43
2023-03-06T19:48:10.350Z,93.49
2023-03-06T19:50:15.334Z,93.04
2023-03-06T19:52:25.210Z,92.49
2023-03-06T19:54:32.727Z,92.38
2023-03-06T19:56:40.922Z,91.92
2023-03-06T19:58:46.724Z,91.41
2023-03-06T20:00:51.561Z,90.91
2023-03-06T20:02:56.530Z,90.65
2023-03-06T20:05:01.232Z,90.93
2023-03-06T20:07:07.899Z,90.48
2023-03-06T20:09:16.349Z,90.18
2023-03-06T20:11:22.703Z,90.18
2023-03-06T20:13:29.688Z,90.67
2023-03-06T20:15:36.900Z,90.54
2023-03-06T20:17:42.882Z,90.40
2023-03-06T20:19:50.232Z,90.80
2023-03-06T20:21:55.954Z,91.21
2023-03-06T20:24:01.384Z,91.16
2023-03-06T20:26:12.094Z,91.05
2023-03-06T20:28:17.145Z,91.09
2023-03-06T20:30:23.400Z,91.69
2023-03-06T20:32:31.096Z,91.60
2023-03-06T20:34:38.880Z,91.73
2023-03-06T20:36:47.515Z,91.75
2023-03-06T20:38:55.601Z,92.22
2023-03-06T20:41:00.747Z,92.17
2023-03-06T20:43:08.298Z,92.31
2023-03-06T20:45:15.673Z,92.27
2023-03-06T20:47:20.474Z,92.76
2023-03-06T20:49:27.309Z,92.46
2023-03-06T20:51:33.783Z,92.86
2023-03-06T20:53:46.349Z,92.55
2023-03-06T20:55:54.961Z,92.67
2023-03-06T20:57:59.912Z,93.15
2023-03-06T21:00:09.524Z,92.91
2023-03-06T21:02:15.062Z,93.12
2023-03-06T21:04:22.768Z,93.16
2023-03-06T21:06:30.880Z,93.56
2023-03-06T21:08:38.052Z,93.56
2023-03-06T21:10:49.199Z,93.86
2023-03-06T21:12:54.688Z,93.55
2023-03-06T21:14:59.661Z,93.65
2023-03-06T21:17:16.210Z,94.02
2023-03-06T21:19:21.586Z,93.75
2023-03-06T21:21:33.553Z,93.41
2023-03-06T21:23:43.603Z,93.68
2023-03-06T21:25:54.988Z,93.53
2023-03-06T21:28:06.499Z,94.38
2023-03-06T21:30:17.501Z,94.64
2023-03-06T21:32:27.120Z,94.16
2023-03-06T21:34:34.083Z,93.95
2023-03-06T21:36:43.036Z,93.71
2023-03-06T21:38:50.611Z,93.65
2023-03-06T21:40:56.267Z,93.40
2023-03-06T21:43:01.078Z,93.67
2023-03-06T21:45:10.891Z,92.96
2023-03-06T21:47:17.672Z,93.25
2023-03-06T21:49:26.279Z,93.23
2023-03-06T21:51:35.317Z,93.44
2023-03-06T21:53:41.388Z,93.42
2023-03-06T21:55:46.292Z,93.56
2023-03-06T21:57:54.806Z,93.17
2023-03-06T22:00:04.753Z,93.55
2023-03-06T22:02:14.347Z,93.72
2023-03-06T22:04:19.373Z,93.85
2023-03-06T22:06:33.376Z,93.33
2023-03-06T22:08:38.298Z,93.60
2023-03-06T22:10:44.907Z,93.60
2023-03-06T22:12:52.354Z,93.82
2023-03-06T22:14:59.073Z,93.66
2023-03-06T22:17:04.477Z,93.54
2023-03-06T22:19:09.359Z,93.95
2023-03-06T22:21:18.152Z,93.78
2023-03-06T22:23:26.378Z,93.51
2023-03-06T22:25:33.038Z,93.13
2023-03-06T22:27:42.268Z,92.56
2023-03-06T22:29:51.953Z,92.53
2023-03-06T22:32:00.277Z,92.02
2023-03-06T22:34:06.712Z,92.12
2023-03-06T22:36:15.864Z,91.84
2023-03-06T22:38:20.649Z,91.73
2023-03-06T22:40:28.662Z,91.50
2023-03-06T22:42:33.514Z,91.10
2023-03-06T22:44:40.566Z,91.35
2023-03-06T22:46:45.744Z,90.24
2023-03-06T22:48:50.587Z,90.18
2023-03-06T22:50:55.733Z,89.67
2023-03-06T22:53:00.733Z,90.36
2023-03-06T22:55:05.482Z,90.40
2023-03-06T22:57:13.461Z,90.59
2023-03-06T22:59:18.891Z,91.04
2023-03-06T23:01:27.416Z,91.00
2023-03-06T23:03:32.148Z,90.69
2023-03-06T23:05:39.720Z,90.84
2023-03-06T23:07:47.612Z,91.07
2023-03-06T23:09:52.733Z,90.76
2023-03-06T23:11:57.654Z,91.12
2023-03-06T23:14:05.989Z,90.59
2023-03-06T23:16:14.728Z,90.88
2023-03-06T23:18:20.315Z,91.09
2023-03-06T23:20:27.752Z,91.07
2023-03-06T23:22:33.036Z,90.75
2023-03-06T23:24:38.431Z,90.13
2023-03-06T23:26:45.541Z,89.85
2023-03-06T23:28:51.298Z,89.79
2023-03-06T23:30:58.837Z,89.49
2023-03-06T23:33:03.682Z,88.95
2023-03-06T23:35:12.161Z,89.32
2023-03-06T23:37:18.105Z,89.11
2023-03-06T23:39:22.869Z,89.48
2023-03-06T23:41:28.746Z,88.84
2023-03-06T23:43:35.647Z,88.82
2023-03-06T23:45:42.933Z,88.67
2023-03-06T23:47:50.508Z,88.94
2023-03-06T23:49:57.234Z,88.73
2023-03-06T23:52:06.376Z,88.82
2023-03-06T23:54:13.215Z,88.76
2023-03-06T23:56:21.850Z,89.09
2023-03-06T23:58:26.555Z,88.98
